sensor_id;sensor_type;location;lat;lon;timestamp;pressure;altitude;pressure_sealevel;temperature;humidity
70968;BME280;58629;48.808;8.820;2023-03-30T00:01:50;96820.00;;;12.83;64.66
70968;BME280;58629;48.808;8.820;2023-03-30T00:04:16;96815.94;;;12.91;64.11
70968;BME280;58629;48.808;8.820;2023-03-30T00:06:42;96806.06;;;12.92;65.09
70968;BME280;58629;48.808;8.820;2023-03-30T00:09:08;96804.03;;;13.09;64.65
70968;BME280;58629;48.808;8.820;2023-03-30T00:11:33;96796.81;;;13.09;65.03
70968;BME280;58629;48.808;8.820;2023-03-30T00:14:00;96798.41;;;13.07;65.46
70968;BME280;58629;48.808;8.820;2023-03-30T00:16:25;96782.13;;;13.04;65.61
70968;BME280;58629;48.808;8.820;2023-03-30T00:18:51;96782.31;;;12.97;66.07
70968;BME280;58629;48.808;8.820;2023-03-30T00:21:16;96780.03;;;12.87;67.01
70968;BME280;58629;48.808;8.820;2023-03-30T00:23:42;96785.56;;;12.80;67.51
70968;BME280;58629;48.808;8.820;2023-03-30T00:26:10;96776.22;;;12.75;68.07
70968;BME280;58629;48.808;8.820;2023-03-30T00:28:35;96778.66;;;12.70;68.27
70968;BME280;58629;48.808;8.820;2023-03-30T00:31:01;96775.16;;;12.73;67.64
70968;BME280;58629;48.808;8.820;2023-03-30T00:33:26;96770.56;;;12.86;66.75
70968;BME280;58629;48.808;8.820;2023-03-30T00:35:52;96769.84;;;12.85;67.25
70968;BME280;58629;48.808;8.820;2023-03-30T00:38:18;96770.16;;;12.87;66.62
70968;BME280;58629;48.808;8.820;2023-03-30T00:40:51;96766.81;;;12.96;66.02
70968;BME280;58629;48.808;8.820;2023-03-30T00:43:17;96763.94;;;13.03;65.70
70968;BME280;58629;48.808;8.820;2023-03-30T00:45:43;96763.72;;;12.97;66.24
70968;BME280;58629;48.808;8.820;2023-03-30T00:48:33;96750.44;;;12.97;66.52
70968;BME280;58629;48.808;8.820;2023-03-30T00:51:03;96756.38;;;13.01;66.67
70968;BME280;58629;48.808;8.820;2023-03-30T00:53:42;96762.56;;;12.98;66.94
70968;BME280;58629;48.808;8.820;2023-03-30T00:56:10;96770.00;;;13.03;66.63
70968;BME280;58629;48.808;8.820;2023-03-30T00:58:38;96769.66;;;13.14;66.80
70968;BME280;58629;48.808;8.820;2023-03-30T01:01:09;96772.19;;;13.18;66.74
70968;BME280;58629;48.808;8.820;2023-03-30T01:03:42;96766.47;;;13.19;66.83
70968;BME280;58629;48.808;8.820;2023-03-30T01:06:10;96769.97;;;13.16;67.10
70968;BME280;58629;48.808;8.820;2023-03-30T01:08:36;96790.19;;;13.14;67.25
70968;BME280;58629;48.808;8.820;2023-03-30T01:11:04;96813.78;;;13.12;67.96
70968;BME280;58629;48.808;8.820;2023-03-30T01:13:33;96812.69;;;13.22;68.83
70968;BME280;58629;48.808;8.820;2023-03-30T01:18:57;96786.28;;;12.93;70.72
70968;BME280;58629;48.808;8.820;2023-03-30T01:24:29;96767.31;;;12.69;72.97
70968;BME280;58629;48.808;8.820;2023-03-30T01:27:27;96756.16;;;12.62;73.47
70968;BME280;58629;48.808;8.820;2023-03-30T01:30:21;96767.84;;;12.64;73.52
70968;BME280;58629;48.808;8.820;2023-03-30T01:39:14;96793.66;;;12.76;73.77
70968;BME280;58629;48.808;8.820;2023-03-30T01:41:51;96803.00;;;12.68;74.54
70968;BME280;58629;48.808;8.820;2023-03-30T01:44:29;96802.81;;;12.63;75.38
70968;BME280;58629;48.808;8.820;2023-03-30T01:47:02;96793.78;;;12.60;75.71
70968;BME280;58629;48.808;8.820;2023-03-30T01:52:14;96786.34;;;12.43;77.73
70968;BME280;58629;48.808;8.820;2023-03-30T01:54:47;96784.13;;;12.41;78.11
70968;BME280;58629;48.808;8.820;2023-03-30T01:57:23;96791.56;;;12.34;78.43
70968;BME280;58629;48.808;8.820;2023-03-30T01:59:58;96802.59;;;12.32;78.62
70968;BME280;58629;48.808;8.820;2023-03-30T02:02:28;96803.66;;;12.35;78.74
70968;BME280;58629;48.808;8.820;2023-03-30T02:04:56;96803.88;;;12.28;79.09
70968;BME280;58629;48.808;8.820;2023-03-30T02:07:27;96813.88;;;12.24;79.44
70968;BME280;58629;48.808;8.820;2023-03-30T02:09:56;96811.41;;;12.16;79.99
70968;BME280;58629;48.808;8.820;2023-03-30T02:12:25;96818.00;;;12.12;80.23
70968;BME280;58629;48.808;8.820;2023-03-30T02:14:56;96813.00;;;12.14;80.03
70968;BME280;58629;48.808;8.820;2023-03-30T02:17:22;96815.44;;;12.21;79.76
70968;BME280;58629;48.808;8.820;2023-03-30T02:19:50;96818.53;;;12.19;80.26
70968;BME280;58629;48.808;8.820;2023-03-30T02:22:16;96818.97;;;12.18;80.36
70968;BME280;58629;48.808;8.820;2023-03-30T02:24:45;96803.03;;;12.18;80.20
70968;BME280;58629;48.808;8.820;2023-03-30T02:27:11;96801.09;;;12.18;80.00
70968;BME280;58629;48.808;8.820;2023-03-30T02:29:40;96787.31;;;12.24;80.21
70968;BME280;58629;48.808;8.820;2023-03-30T02:32:15;96799.41;;;12.25;80.62
70968;BME280;58629;48.808;8.820;2023-03-30T02:45:38;96756.31;;;12.08;85.80
70968;BME280;58629;48.808;8.820;2023-03-30T02:53:31;96725.94;;;11.84;90.01
70968;BME280;58629;48.808;8.820;2023-03-30T02:56:36;96733.75;;;11.75;90.91
70968;BME280;58629;48.808;8.820;2023-03-30T02:59:14;96726.03;;;11.68;91.73
70968;BME280;58629;48.808;8.820;2023-03-30T03:01:45;96721.16;;;11.66;92.33
70968;BME280;58629;48.808;8.820;2023-03-30T03:04:13;96708.78;;;11.60;92.63
70968;BME280;58629;48.808;8.820;2023-03-30T03:06:40;96692.22;;;11.56;92.78
70968;BME280;58629;48.808;8.820;2023-03-30T03:09:07;96697.53;;;11.56;92.81
70968;BME280;58629;48.808;8.820;2023-03-30T03:11:32;96703.28;;;11.54;93.66
70968;BME280;58629;48.808;8.820;2023-03-30T03:13:58;96699.56;;;11.52;94.60
70968;BME280;58629;48.808;8.820;2023-03-30T03:16:23;96701.56;;;11.48;95.37
70968;BME280;58629;48.808;8.820;2023-03-30T03:18:48;96688.72;;;11.46;95.57
70968;BME280;58629;48.808;8.820;2023-03-30T03:21:14;96679.38;;;11.42;96.54
70968;BME280;58629;48.808;8.820;2023-03-30T03:23:40;96683.84;;;11.45;97.05
70968;BME280;58629;48.808;8.820;2023-03-30T03:26:06;96672.81;;;11.46;97.11
70968;BME280;58629;48.808;8.820;2023-03-30T03:28:31;96673.25;;;11.45;96.68
70968;BME280;58629;48.808;8.820;2023-03-30T03:30:57;96688.50;;;11.41;97.18
70968;BME280;58629;48.808;8.820;2023-03-30T03:33:27;96699.19;;;11.37;98.23
70968;BME280;58629;48.808;8.820;2023-03-30T03:35:53;96694.84;;;11.43;97.60
70968;BME280;58629;48.808;8.820;2023-03-30T03:38:22;96675.56;;;11.43;97.43
70968;BME280;58629;48.808;8.820;2023-03-30T03:40:52;96679.81;;;11.40;97.87
70968;BME280;58629;48.808;8.820;2023-03-30T03:43:18;96674.69;;;11.33;98.45
70968;BME280;58629;48.808;8.820;2023-03-30T03:45:44;96683.81;;;11.32;98.52
70968;BME280;58629;48.808;8.820;2023-03-30T03:48:11;96678.28;;;11.26;99.45
70968;BME280;58629;48.808;8.820;2023-03-30T03:50:36;96669.38;;;11.20;99.70
70968;BME280;58629;48.808;8.820;2023-03-30T03:53:02;96668.84;;;11.25;99.58
70968;BME280;58629;48.808;8.820;2023-03-30T03:55:27;96668.94;;;11.22;99.71
70968;BME280;58629;48.808;8.820;2023-03-30T03:57:53;96671.16;;;11.23;99.61
70968;BME280;58629;48.808;8.820;2023-03-30T04:00:19;96673.00;;;11.26;99.05
70968;BME280;58629;48.808;8.820;2023-03-30T04:02:44;96669.50;;;11.29;99.13
70968;BME280;58629;48.808;8.820;2023-03-30T04:05:10;96663.22;;;11.23;99.56
70968;BME280;58629;48.808;8.820;2023-03-30T04:07:35;96660.25;;;11.21;99.53
70968;BME280;58629;48.808;8.820;2023-03-30T04:10:05;96640.22;;;11.20;99.76
70968;BME280;58629;48.808;8.820;2023-03-30T04:12:31;96634.19;;;11.32;99.14
70968;BME280;58629;48.808;8.820;2023-03-30T04:14:56;96634.53;;;11.34;98.17
70968;BME280;58629;48.808;8.820;2023-03-30T04:17:22;96637.69;;;11.29;98.59
70968;BME280;58629;48.808;8.820;2023-03-30T04:19:51;96631.31;;;11.27;98.82
70968;BME280;58629;48.808;8.820;2023-03-30T04:22:18;96620.81;;;11.23;98.72
70968;BME280;58629;48.808;8.820;2023-03-30T04:24:44;96616.69;;;11.22;98.35
70968;BME280;58629;48.808;8.820;2023-03-30T04:27:10;96608.00;;;11.22;99.07
70968;BME280;58629;48.808;8.820;2023-03-30T04:29:38;96609.16;;;11.21;98.71
70968;BME280;58629;48.808;8.820;2023-03-30T04:32:05;96610.00;;;11.18;99.81
70968;BME280;58629;48.808;8.820;2023-03-30T04:34:30;96608.84;;;11.19;99.98
70968;BME280;58629;48.808;8.820;2023-03-30T04:36:55;96603.44;;;11.35;100.00
70968;BME280;58629;48.808;8.820;2023-03-30T04:39:22;96594.53;;;11.42;98.25
70968;BME280;58629;48.808;8.820;2023-03-30T04:41:47;96599.31;;;11.34;98.57
70968;BME280;58629;48.808;8.820;2023-03-30T04:44:15;96594.00;;;11.34;98.24
70968;BME280;58629;48.808;8.820;2023-03-30T04:46:44;96583.53;;;11.30;98.48
70968;BME280;58629;48.808;8.820;2023-03-30T04:49:10;96591.47;;;11.30;99.68
70968;BME280;58629;48.808;8.820;2023-03-30T04:51:35;96593.69;;;11.32;99.59
70968;BME280;58629;48.808;8.820;2023-03-30T04:54:01;96587.03;;;11.53;97.63
70968;BME280;58629;48.808;8.820;2023-03-30T04:56:27;96584.34;;;11.65;95.77
70968;BME280;58629;48.808;8.820;2023-03-30T04:58:52;96590.09;;;11.89;94.46
70968;BME280;58629;48.808;8.820;2023-03-30T05:01:17;96574.16;;;12.01;92.74
70968;BME280;58629;48.808;8.820;2023-03-30T05:03:42;96561.91;;;12.16;91.11
70968;BME280;58629;48.808;8.820;2023-03-30T05:06:08;96556.13;;;12.31;89.76
70968;BME280;58629;48.808;8.820;2023-03-30T05:08:33;96543.03;;;12.36;89.06
70968;BME280;58629;48.808;8.820;2023-03-30T05:11:00;96544.56;;;12.46;88.29
70968;BME280;58629;48.808;8.820;2023-03-30T05:13:26;96542.44;;;12.54;87.15
70968;BME280;58629;48.808;8.820;2023-03-30T05:15:53;96542.31;;;12.57;86.63
70968;BME280;58629;48.808;8.820;2023-03-30T05:18:18;96539.97;;;12.59;87.06
70968;BME280;58629;48.808;8.820;2023-03-30T05:20:44;96542.94;;;12.61;86.00
70968;BME280;58629;48.808;8.820;2023-03-30T05:23:10;96529.25;;;12.72;85.40
70968;BME280;58629;48.808;8.820;2023-03-30T05:25:35;96524.31;;;12.83;84.89
70968;BME280;58629;48.808;8.820;2023-03-30T05:28:00;96525.41;;;12.94;83.82
70968;BME280;58629;48.808;8.820;2023-03-30T05:30:26;96532.59;;;13.07;82.91
70968;BME280;58629;48.808;8.820;2023-03-30T05:32:51;96521.56;;;13.17;82.10
70968;BME280;58629;48.808;8.820;2023-03-30T05:35:16;96526.28;;;13.22;81.18
70968;BME280;58629;48.808;8.820;2023-03-30T05:37:42;96541.81;;;13.24;81.18
70968;BME280;58629;48.808;8.820;2023-03-30T05:40:08;96559.91;;;13.07;81.66
70968;BME280;58629;48.808;8.820;2023-03-30T05:42:34;96580.75;;;13.09;81.73
70968;BME280;58629;48.808;8.820;2023-03-30T05:45:00;96593.44;;;13.14;81.35
70968;BME280;58629;48.808;8.820;2023-03-30T05:47:25;96617.97;;;12.96;82.13
70968;BME280;58629;48.808;8.820;2023-03-30T05:49:52;96631.75;;;12.82;83.63
70968;BME280;58629;48.808;8.820;2023-03-30T05:52:18;96642.88;;;12.68;84.67
70968;BME280;58629;48.808;8.820;2023-03-30T05:54:43;96662.91;;;12.47;86.93
70968;BME280;58629;48.808;8.820;2023-03-30T05:57:08;96656.41;;;12.48;87.27
70968;BME280;58629;48.808;8.820;2023-03-30T05:59:33;96672.56;;;12.54;86.65
70968;BME280;58629;48.808;8.820;2023-03-30T06:01:59;96672.50;;;12.32;89.57
70968;BME280;58629;48.808;8.820;2023-03-30T06:04:24;96670.53;;;12.11;92.96
70968;BME280;58629;48.808;8.820;2023-03-30T06:06:52;96685.69;;;12.10;92.74
70968;BME280;58629;48.808;8.820;2023-03-30T06:09:17;96688.56;;;11.91;95.05
70968;BME280;58629;48.808;8.820;2023-03-30T06:11:42;96702.78;;;11.72;96.88
70968;BME280;58629;48.808;8.820;2023-03-30T06:14:08;96703.16;;;11.58;98.11
70968;BME280;58629;48.808;8.820;2023-03-30T06:16:34;96709.50;;;11.48;98.94
70968;BME280;58629;48.808;8.820;2023-03-30T06:18:59;96703.56;;;11.44;99.75
70968;BME280;58629;48.808;8.820;2023-03-30T06:21:25;96704.00;;;11.42;100.00
70968;BME280;58629;48.808;8.820;2023-03-30T06:23:50;96702.16;;;11.39;100.00
70968;BME280;58629;48.808;8.820;2023-03-30T06:26:15;96709.72;;;11.41;100.00
70968;BME280;58629;48.808;8.820;2023-03-30T06:28:41;96719.38;;;11.47;100.00
70968;BME280;58629;48.808;8.820;2023-03-30T06:31:08;96702.94;;;11.52;100.00
70968;BME280;58629;48.808;8.820;2023-03-30T06:33:34;96722.97;;;11.53;100.00
70968;BME280;58629;48.808;8.820;2023-03-30T06:36:00;96727.25;;;11.51;100.00
70968;BME280;58629;48.808;8.820;2023-03-30T06:38:25;96720.53;;;11.46;100.00
70968;BME280;58629;48.808;8.820;2023-03-30T06:40:50;96703.66;;;11.40;100.00
70968;BME280;58629;48.808;8.820;2023-03-30T06:43:24;96711.63;;;11.40;100.00
70968;BME280;58629;48.808;8.820;2023-03-30T06:45:51;96736.94;;;11.41;100.00
70968;BME280;58629;48.808;8.820;2023-03-30T06:48:18;96758.91;;;11.42;100.00
70968;BME280;58629;48.808;8.820;2023-03-30T06:50:46;96763.56;;;11.38;100.00
70968;BME280;58629;48.808;8.820;2023-03-30T06:53:12;96777.16;;;11.40;100.00
70968;BME280;58629;48.808;8.820;2023-03-30T06:55:38;96776.00;;;11.41;100.00
70968;BME280;58629;48.808;8.820;2023-03-30T06:58:03;96774.00;;;11.45;100.00
70968;BME280;58629;48.808;8.820;2023-03-30T07:00:29;96764.63;;;11.40;100.00
70968;BME280;58629;48.808;8.820;2023-03-30T07:02:54;96765.47;;;11.37;100.00
70968;BME280;58629;48.808;8.820;2023-03-30T07:05:20;96778.50;;;11.31;100.00
70968;BME280;58629;48.808;8.820;2023-03-30T07:07:49;96771.88;;;11.23;100.00
70968;BME280;58629;48.808;8.820;2023-03-30T07:10:16;96777.72;;;11.18;100.00
70968;BME280;58629;48.808;8.820;2023-03-30T07:12:41;96797.84;;;11.16;100.00
70968;BME280;58629;48.808;8.820;2023-03-30T07:15:07;96816.91;;;11.11;100.00
70968;BME280;58629;48.808;8.820;2023-03-30T07:17:33;96809.00;;;11.07;100.00
70968;BME280;58629;48.808;8.820;2023-03-30T07:19:59;96801.16;;;11.04;100.00
70968;BME280;58629;48.808;8.820;2023-03-30T07:22:25;96776.66;;;11.00;100.00
70968;BME280;58629;48.808;8.820;2023-03-30T07:24:51;96749.75;;;11.01;100.00
70968;BME280;58629;48.808;8.820;2023-03-30T07:27:16;96775.91;;;10.99;100.00
70968;BME280;58629;48.808;8.820;2023-03-30T07:29:41;96766.06;;;11.00;100.00
70968;BME280;58629;48.808;8.820;2023-03-30T07:32:07;96756.22;;;11.00;100.00
70968;BME280;58629;48.808;8.820;2023-03-30T07:34:32;96745.94;;;11.02;100.00
70968;BME280;58629;48.808;8.820;2023-03-30T07:36:58;96741.41;;;11.03;100.00
70968;BME280;58629;48.808;8.820;2023-03-30T07:39:26;96733.03;;;11.04;100.00
70968;BME280;58629;48.808;8.820;2023-03-30T07:41:51;96734.50;;;11.05;100.00
70968;BME280;58629;48.808;8.820;2023-03-30T07:44:16;96752.00;;;11.03;100.00
70968;BME280;58629;48.808;8.820;2023-03-30T07:46:42;96774.44;;;10.98;100.00
70968;BME280;58629;48.808;8.820;2023-03-30T07:49:07;96765.31;;;10.99;100.00
70968;BME280;58629;48.808;8.820;2023-03-30T07:51:32;96781.63;;;10.98;100.00
70968;BME280;58629;48.808;8.820;2023-03-30T07:53:58;96792.31;;;10.94;100.00
70968;BME280;58629;48.808;8.820;2023-03-30T07:56:24;96804.47;;;10.92;100.00
70968;BME280;58629;48.808;8.820;2023-03-30T07:58:49;96828.41;;;10.88;100.00
70968;BME280;58629;48.808;8.820;2023-03-30T08:01:15;96842.50;;;10.85;100.00
70968;BME280;58629;48.808;8.820;2023-03-30T08:03:40;96850.13;;;10.83;100.00
70968;BME280;58629;48.808;8.820;2023-03-30T08:06:09;96845.81;;;10.89;100.00
70968;BME280;58629;48.808;8.820;2023-03-30T08:08:35;96831.97;;;10.98;100.00
70968;BME280;58629;48.808;8.820;2023-03-30T08:11:03;96821.22;;;11.05;100.00
70968;BME280;58629;48.808;8.820;2023-03-30T08:13:28;96825.56;;;11.11;100.00
70968;BME280;58629;48.808;8.820;2023-03-30T08:15:54;96842.31;;;11.08;100.00
70968;BME280;58629;48.808;8.820;2023-03-30T08:18:20;96851.75;;;11.09;100.00
70968;BME280;58629;48.808;8.820;2023-03-30T08:20:49;96823.03;;;11.08;100.00
70968;BME280;58629;48.808;8.820;2023-03-30T08:23:14;96816.56;;;11.09;100.00
70968;BME280;58629;48.808;8.820;2023-03-30T08:25:40;96793.44;;;11.09;100.00
70968;BME280;58629;48.808;8.820;2023-03-30T08:28:06;96758.94;;;11.13;100.00
70968;BME280;58629;48.808;8.820;2023-03-30T08:30:32;96763.47;;;11.12;100.00
70968;BME280;58629;48.808;8.820;2023-03-30T08:32:57;96769.19;;;11.11;100.00
70968;BME280;58629;48.808;8.820;2023-03-30T08:35:23;96748.41;;;11.09;100.00
70968;BME280;58629;48.808;8.820;2023-03-30T08:37:49;96778.72;;;11.08;100.00
70968;BME280;58629;48.808;8.820;2023-03-30T08:40:14;96761.31;;;11.07;100.00
70968;BME280;58629;48.808;8.820;2023-03-30T08:43:09;96762.16;;;11.04;100.00
70968;BME280;58629;48.808;8.820;2023-03-30T08:45:40;96757.28;;;11.03;100.00
70968;BME280;58629;48.808;8.820;2023-03-30T08:48:26;96762.25;;;11.01;100.00
70968;BME280;58629;48.808;8.820;2023-03-30T08:50:58;96745.84;;;11.06;100.00
70968;BME280;58629;48.808;8.820;2023-03-30T08:53:27;96724.56;;;11.09;100.00
70968;BME280;58629;48.808;8.820;2023-03-30T08:56:03;96721.72;;;11.16;100.00
70968;BME280;58629;48.808;8.820;2023-03-30T08:59:26;96743.16;;;11.22;100.00
70968;BME280;58629;48.808;8.820;2023-03-30T09:02:15;96747.84;;;11.30;100.00
70968;BME280;58629;48.808;8.820;2023-03-30T09:04:55;96753.06;;;11.34;100.00
70968;BME280;58629;48.808;8.820;2023-03-30T09:07:28;96758.91;;;11.42;100.00
70968;BME280;58629;48.808;8.820;2023-03-30T09:09:56;96748.34;;;11.54;100.00
70968;BME280;58629;48.808;8.820;2023-03-30T09:12:31;96752.97;;;11.66;100.00
70968;BME280;58629;48.808;8.820;2023-03-30T09:17:52;96754.78;;;11.94;100.00
70968;BME280;58629;48.808;8.820;2023-03-30T09:20:22;96749.81;;;11.96;97.92
70968;BME280;58629;48.808;8.820;2023-03-30T09:22:49;96735.81;;;11.96;98.03
70968;BME280;58629;48.808;8.820;2023-03-30T09:27:57;96759.59;;;12.12;100.00
70968;BME280;58629;48.808;8.820;2023-03-30T09:30:39;96775.00;;;12.17;98.79
70968;BME280;58629;48.808;8.820;2023-03-30T09:33:35;96785.06;;;12.35;97.08
70968;BME280;58629;48.808;8.820;2023-03-30T09:36:14;96792.84;;;12.42;97.55
70968;BME280;58629;48.808;8.820;2023-03-30T09:38:40;96792.41;;;12.43;99.17
70968;BME280;58629;48.808;8.820;2023-03-30T09:43:44;96790.19;;;12.42;100.00
70968;BME280;58629;48.808;8.820;2023-03-30T09:46:12;96799.00;;;12.39;100.00
70968;BME280;58629;48.808;8.820;2023-03-30T09:48:43;96802.41;;;12.39;100.00
70968;BME280;58629;48.808;8.820;2023-03-30T09:51:23;96803.16;;;12.40;100.00
70968;BME280;58629;48.808;8.820;2023-03-30T09:53:52;96808.13;;;12.38;99.53
70968;BME280;58629;48.808;8.820;2023-03-30T09:56:27;96810.56;;;12.32;98.93
70968;BME280;58629;48.808;8.820;2023-03-30T09:58:54;96811.75;;;12.31;99.56
70968;BME280;58629;48.808;8.820;2023-03-30T10:01:20;96815.22;;;12.28;99.12
70968;BME280;58629;48.808;8.820;2023-03-30T10:04:09;96809.50;;;12.30;99.40
70968;BME280;58629;48.808;8.820;2023-03-30T10:06:46;96808.88;;;12.38;98.63
70968;BME280;58629;48.808;8.820;2023-03-30T10:09:12;96799.31;;;12.41;98.89
70968;BME280;58629;48.808;8.820;2023-03-30T10:11:47;96785.41;;;12.49;99.57
70968;BME280;58629;48.808;8.820;2023-03-30T10:14:32;96763.47;;;12.70;100.00
70968;BME280;58629;48.808;8.820;2023-03-30T10:16:59;96753.56;;;12.83;100.00
70968;BME280;58629;48.808;8.820;2023-03-30T10:19:25;96758.31;;;13.01;98.40
70968;BME280;58629;48.808;8.820;2023-03-30T10:21:58;96747.91;;;12.94;93.18
70968;BME280;58629;48.808;8.820;2023-03-30T10:24:30;96754.91;;;13.13;94.83
70968;BME280;58629;48.808;8.820;2023-03-30T10:27:08;96774.50;;;13.28;85.33
70968;BME280;58629;48.808;8.820;2023-03-30T10:29:35;96768.81;;;13.39;84.96
70968;BME280;58629;48.808;8.820;2023-03-30T10:32:08;96772.34;;;13.57;85.19
70968;BME280;58629;48.808;8.820;2023-03-30T10:37:09;96747.78;;;13.53;84.07
70968;BME280;58629;48.808;8.820;2023-03-30T10:39:39;96763.06;;;13.40;80.52
70968;BME280;58629;48.808;8.820;2023-03-30T10:42:05;96772.78;;;13.34;79.59
70968;BME280;58629;48.808;8.820;2023-03-30T10:44:36;96759.44;;;13.47;81.45
70968;BME280;58629;48.808;8.820;2023-03-30T10:50:24;96728.97;;;13.69;78.09
70968;BME280;58629;48.808;8.820;2023-03-30T10:55:59;96714.84;;;13.90;77.48
70968;BME280;58629;48.808;8.820;2023-03-30T10:58:40;96737.81;;;13.97;79.06
70968;BME280;58629;48.808;8.820;2023-03-30T11:01:25;96739.81;;;14.15;76.68
70968;BME280;58629;48.808;8.820;2023-03-30T11:04:01;96736.22;;;14.09;80.53
70968;BME280;58629;48.808;8.820;2023-03-30T11:06:31;96747.91;;;14.02;80.63
70968;BME280;58629;48.808;8.820;2023-03-30T11:09:01;96744.81;;;14.13;80.02
70968;BME280;58629;48.808;8.820;2023-03-30T11:11:33;96747.53;;;14.22;80.24
70968;BME280;58629;48.808;8.820;2023-03-30T11:14:02;96757.88;;;14.20;81.13
70968;BME280;58629;48.808;8.820;2023-03-30T11:19:39;96751.75;;;14.01;78.67
70968;BME280;58629;48.808;8.820;2023-03-30T11:24:58;96741.69;;;14.05;81.93
70968;BME280;58629;48.808;8.820;2023-03-30T11:27:34;96755.41;;;13.94;80.20
70968;BME280;58629;48.808;8.820;2023-03-30T11:30:10;96754.84;;;14.00;79.18
70968;BME280;58629;48.808;8.820;2023-03-30T11:32:49;96759.50;;;13.86;78.07
70968;BME280;58629;48.808;8.820;2023-03-30T11:35:33;96749.44;;;13.81;78.91
70968;BME280;58629;48.808;8.820;2023-03-30T11:38:08;96754.31;;;13.83;81.45
70968;BME280;58629;48.808;8.820;2023-03-30T11:40:47;96751.13;;;13.97;80.18
70968;BME280;58629;48.808;8.820;2023-03-30T11:43:18;96755.31;;;14.07;78.31
70968;BME280;58629;48.808;8.820;2023-03-30T11:46:06;96756.47;;;14.28;79.40
70968;BME280;58629;48.808;8.820;2023-03-30T11:48:51;96755.22;;;14.20;80.76
70968;BME280;58629;48.808;8.820;2023-03-30T11:53:59;96768.78;;;14.13;76.99
70968;BME280;58629;48.808;8.820;2023-03-30T12:02:22;96766.28;;;14.18;78.69
70968;BME280;58629;48.808;8.820;2023-03-30T12:05:01;96755.03;;;14.45;78.23
70968;BME280;58629;48.808;8.820;2023-03-30T12:07:52;96759.00;;;14.40;78.23
70968;BME280;58629;48.808;8.820;2023-03-30T12:10:36;96760.88;;;14.61;76.66
70968;BME280;58629;48.808;8.820;2023-03-30T12:13:03;96755.59;;;15.16;76.05
70968;BME280;58629;48.808;8.820;2023-03-30T12:18:16;96737.72;;;15.94;74.90
70968;BME280;58629;48.808;8.820;2023-03-30T12:23:44;96712.56;;;16.10;65.10
70968;BME280;58629;48.808;8.820;2023-03-30T12:34:30;96718.06;;;15.65;69.45
70968;BME280;58629;48.808;8.820;2023-03-30T12:36:57;96710.13;;;15.88;66.95
70968;BME280;58629;48.808;8.820;2023-03-30T12:39:29;96716.53;;;15.82;65.48
70968;BME280;58629;48.808;8.820;2023-03-30T12:45:06;96686.34;;;16.79;68.00
70968;BME280;58629;48.808;8.820;2023-03-30T12:50:39;96686.00;;;16.39;61.77
70968;BME280;58629;48.808;8.820;2023-03-30T12:56:13;96654.91;;;16.51;61.35
70968;BME280;58629;48.808;8.820;2023-03-30T13:04:31;96666.00;;;16.58;62.56
70968;BME280;58629;48.808;8.820;2023-03-30T13:07:02;96678.72;;;16.87;64.60
70968;BME280;58629;48.808;8.820;2023-03-30T13:09:31;96679.13;;;16.71;58.86
70968;BME280;58629;48.808;8.820;2023-03-30T13:14:45;96691.56;;;16.97;57.53
70968;BME280;58629;48.808;8.820;2023-03-30T13:17:17;96683.66;;;17.17;57.91
70968;BME280;58629;48.808;8.820;2023-03-30T13:22:30;96689.34;;;16.58;60.32
70968;BME280;58629;48.808;8.820;2023-03-30T13:25:06;96677.06;;;16.89;57.38
70968;BME280;58629;48.808;8.820;2023-03-30T13:27:49;96697.09;;;16.70;57.51
70968;BME280;58629;48.808;8.820;2023-03-30T13:30:15;96695.59;;;16.93;57.36
70968;BME280;58629;48.808;8.820;2023-03-30T13:33:08;96703.44;;;17.49;59.24
70968;BME280;58629;48.808;8.820;2023-03-30T13:35:55;96695.81;;;17.57;58.98
70968;BME280;58629;48.808;8.820;2023-03-30T13:41:33;96685.97;;;17.83;55.82
70968;BME280;58629;48.808;8.820;2023-03-30T13:50:02;96694.31;;;17.70;55.24
70968;BME280;58629;48.808;8.820;2023-03-30T13:52:40;96697.19;;;17.52;56.39
70968;BME280;58629;48.808;8.820;2023-03-30T13:55:20;96688.72;;;17.01;55.09
70968;BME280;58629;48.808;8.820;2023-03-30T13:57:48;96687.63;;;17.22;55.47
70968;BME280;58629;48.808;8.820;2023-03-30T14:00:22;96694.28;;;17.26;55.78
70968;BME280;58629;48.808;8.820;2023-03-30T14:02:49;96692.72;;;17.34;55.97
70968;BME280;58629;48.808;8.820;2023-03-30T14:05:20;96681.53;;;17.21;52.90
70968;BME280;58629;48.808;8.820;2023-03-30T14:07:46;96679.84;;;17.09;54.45
70968;BME280;58629;48.808;8.820;2023-03-30T14:10:19;96695.66;;;16.84;55.38
70968;BME280;58629;48.808;8.820;2023-03-30T14:12:54;96701.84;;;16.42;57.00
70968;BME280;58629;48.808;8.820;2023-03-30T14:15:27;96718.28;;;15.94;57.37
70968;BME280;58629;48.808;8.820;2023-03-30T14:17:58;96728.84;;;15.79;58.93
70968;BME280;58629;48.808;8.820;2023-03-30T14:23:44;96725.03;;;15.62;58.96
70968;BME280;58629;48.808;8.820;2023-03-30T14:26:17;96730.66;;;15.64;55.62
70968;BME280;58629;48.808;8.820;2023-03-30T14:28:43;96740.47;;;15.40;58.39
70968;BME280;58629;48.808;8.820;2023-03-30T14:31:14;96744.63;;;15.32;56.39
70968;BME280;58629;48.808;8.820;2023-03-30T14:33:42;96749.06;;;15.26;57.65
70968;BME280;58629;48.808;8.820;2023-03-30T14:36:07;96750.09;;;14.83;59.26
70968;BME280;58629;48.808;8.820;2023-03-30T14:38:40;96752.69;;;14.47;63.79
70968;BME280;58629;48.808;8.820;2023-03-30T14:41:08;96735.22;;;14.55;64.96
70968;BME280;58629;48.808;8.820;2023-03-30T14:43:37;96727.66;;;14.44;67.69
70968;BME280;58629;48.808;8.820;2023-03-30T14:46:06;96726.22;;;14.61;66.68
70968;BME280;58629;48.808;8.820;2023-03-30T14:48:40;96724.63;;;14.91;64.71
70968;BME280;58629;48.808;8.820;2023-03-30T14:51:20;96716.34;;;15.07;63.02
70968;BME280;58629;48.808;8.820;2023-03-30T14:53:48;96720.91;;;15.34;66.02
70968;BME280;58629;48.808;8.820;2023-03-30T14:56:16;96727.13;;;15.40;64.61
70968;BME280;58629;48.808;8.820;2023-03-30T14:58:42;96721.19;;;15.18;64.01
70968;BME280;58629;48.808;8.820;2023-03-30T15:01:14;96713.03;;;14.58;65.43